createdAt,value
2023-05-14T00:01:16.764Z,100.00
2023-05-14T00:03:43.986Z,100.00
2023-05-14T00:06:11.114Z,100.00
2023-05-14T00:08:37.759Z,100.00
2023-05-14T00:11:04.667Z,100.00
2023-05-14T00:13:31.371Z,100.00
2023-05-14T00:15:58.131Z,100.00
2023-05-14T00:18:24.945Z,100.00
2023-05-14T00:20:54.955Z,100.00
2023-05-14T00:23:22.875Z,100.00
2023-05-14T00:25:49.807Z,100.00
2023-05-14T00:28:16.855Z,100.00
2023-05-14T00:30:44.893Z,100.00
2023-05-14T00:33:11.738Z,100.00
2023-05-14T00:35:38.599Z,100.00
2023-05-14T00:40:46.045Z,100.00
2023-05-14T00:43:12.708Z,100.00
2023-05-14T00:45:39.615Z,100.00
2023-05-14T00:48:06.332Z,100.00
2023-05-14T00:50:34.756Z,100.00
2023-05-14T00:53:01.655Z,100.00
2023-05-14T00:55:30.935Z,100.00
2023-05-14T00:57:59.103Z,100.00
2023-05-14T01:00:26.199Z,100.00
2023-05-14T01:02:53.053Z,100.00
2023-05-14T01:05:20.231Z,100.00
2023-05-14T01:07:52.946Z,100.00
2023-05-14T01:10:33.018Z,100.00
2023-05-14T01:13:15.866Z,100.00
2023-05-14T01:15:45.126Z,100.00
2023-05-14T01:18:14.450Z,100.00
2023-05-14T01:20:41.142Z,100.00
2023-05-14T01:23:07.762Z,100.00
2023-05-14T01:25:34.436Z,100.00
2023-05-14T01:28:20.073Z,100.00
2023-05-14T01:30:50.863Z,100.00
2023-05-14T01:33:19.537Z,100.00
2023-05-14T01:35:46.694Z,100.00
2023-05-14T01:38:16.739Z,100.00
2023-05-14T01:40:45.677Z,100.00
2023-05-14T01:43:12.634Z,100.00
2023-05-14T01:45:39.422Z,100.00
2023-05-14T01:48:06.302Z,100.00
2023-05-14T01:50:33.169Z,100.00
2023-05-14T01:52:59.797Z,100.00
2023-05-14T01:55:26.474Z,100.00
2023-05-14T01:57:53.329Z,100.00
2023-05-14T02:00:21.251Z,100.00
2023-05-14T02:02:48.046Z,100.00
2023-05-14T02:05:14.748Z,100.00
2023-05-14T02:07:41.426Z,100.00
2023-05-14T02:10:08.672Z,100.00
2023-05-14T02:12:35.818Z,100.00
2023-05-14T02:15:04.029Z,100.00
2023-05-14T02:17:30.834Z,100.00
2023-05-14T02:19:57.514Z,100.00
2023-05-14T02:22:24.169Z,100.00
2023-05-14T02:24:51.632Z,100.00
2023-05-14T02:27:18.694Z,100.00
2023-05-14T02:29:45.384Z,100.00
2023-05-14T02:32:12.035Z,100.00
2023-05-14T02:34:38.899Z,100.00
2023-05-14T02:37:05.810Z,100.00
2023-05-14T02:39:32.456Z,100.00
2023-05-14T02:41:59.136Z,100.00
2023-05-14T02:44:25.786Z,100.00
2023-05-14T02:46:52.450Z,100.00
2023-05-14T02:49:19.234Z,100.00
2023-05-14T02:51:45.884Z,100.00
2023-05-14T02:54:12.566Z,100.00
2023-05-14T02:56:39.234Z,100.00
2023-05-14T02:59:05.874Z,100.00
2023-05-14T03:01:33.141Z,100.00
2023-05-14T03:04:00.178Z,100.00
2023-05-14T03:06:26.832Z,100.00
2023-05-14T03:11:31.302Z,100.00
2023-05-14T03:16:35.240Z,100.00
2023-05-14T03:19:02.065Z,100.00
2023-05-14T03:21:28.790Z,100.00
2023-05-14T03:23:55.466Z,100.00
2023-05-14T03:26:22.272Z,100.00
2023-05-14T03:28:48.918Z,100.00
2023-05-14T03:31:15.698Z,100.00
2023-05-14T03:33:42.535Z,100.00
2023-05-14T03:36:09.475Z,100.00
2023-05-14T03:38:36.168Z,100.00
2023-05-14T03:41:02.881Z,100.00
2023-05-14T03:43:29.543Z,100.00
2023-05-14T03:45:56.259Z,100.00
2023-05-14T03:48:23.042Z,100.00
2023-05-14T03:50:49.826Z,100.00
2023-05-14T03:53:17.013Z,100.00
2023-05-14T03:55:43.648Z,100.00
2023-05-14T03:58:14.624Z,100.00
2023-05-14T04:00:42.396Z,100.00
2023-05-14T04:03:09.364Z,100.00
2023-05-14T04:05:36.241Z,100.00
2023-05-14T04:08:02.894Z,100.00
2023-05-14T04:10:30.052Z,100.00
2023-05-14T04:12:56.751Z,100.00
2023-05-14T04:15:23.616Z,100.00
2023-05-14T04:17:50.250Z,100.00
2023-05-14T04:20:16.919Z,100.00
2023-05-14T04:22:43.558Z,100.00
2023-05-14T04:25:10.258Z,100.00
2023-05-14T04:27:36.898Z,100.00
2023-05-14T04:30:03.859Z,100.00
2023-05-14T04:32:30.531Z,100.00
2023-05-14T04:34:57.128Z,100.00
2023-05-14T04:37:23.849Z,100.00
2023-05-14T04:39:50.982Z,100.00
2023-05-14T04:42:17.656Z,100.00
2023-05-14T04:44:44.262Z,100.00
2023-05-14T04:47:10.853Z,100.00
2023-05-14T04:49:37.614Z,100.00
2023-05-14T04:52:04.437Z,100.00
2023-05-14T04:54:31.187Z,100.00
2023-05-14T04:56:57.904Z,100.00
2023-05-14T04:59:24.555Z,100.00
2023-05-14T05:01:51.934Z,100.00
2023-05-14T05:04:19.241Z,100.00
2023-05-14T05:06:45.958Z,100.00
2023-05-14T05:09:12.641Z,100.00
2023-05-14T05:11:39.328Z,100.00
2023-05-14T05:14:05.973Z,100.00
2023-05-14T05:16:32.970Z,100.00
2023-05-14T05:18:59.838Z,100.00
2023-05-14T05:21:26.736Z,100.00
2023-05-14T05:23:53.396Z,100.00
2023-05-14T05:26:20.014Z,100.00
2023-05-14T05:28:46.637Z,100.00
2023-05-14T05:31:13.295Z,100.00
2023-05-14T05:33:40.128Z,100.00
2023-05-14T05:36:07.112Z,100.00
2023-05-14T05:38:33.770Z,100.00
2023-05-14T05:41:00.481Z,100.00
2023-05-14T05:43:28.748Z,100.00
2023-05-14T05:45:55.378Z,100.00
2023-05-14T05:48:22.076Z,100.00
2023-05-14T05:50:49.582Z,100.00
2023-05-14T05:55:55.825Z,100.00
2023-05-14T05:58:22.775Z,100.00
2023-05-14T06:00:49.536Z,100.00
2023-05-14T06:03:16.315Z,100.00
2023-05-14T06:05:43.286Z,100.00
2023-05-14T06:08:10.066Z,100.00
2023-05-14T06:10:37.717Z,100.00
2023-05-14T06:13:04.604Z,100.00
2023-05-14T06:15:31.432Z,100.00
2023-05-14T06:20:31.765Z,100.00
2023-05-14T06:22:58.595Z,100.00
2023-05-14T06:25:25.236Z,100.00
2023-05-14T06:27:51.981Z,100.00
2023-05-14T06:30:18.634Z,100.00
2023-05-14T06:32:45.353Z,100.00
2023-05-14T06:35:12.101Z,100.00
2023-05-14T06:37:38.774Z,100.00
2023-05-14T06:40:06.200Z,100.00
2023-05-14T06:42:32.828Z,100.00
2023-05-14T06:44:59.603Z,100.00
2023-05-14T06:47:26.323Z,100.00
2023-05-14T06:49:52.992Z,100.00
2023-05-14T06:52:19.651Z,100.00
2023-05-14T06:54:46.318Z,100.00
2023-05-14T06:57:13.013Z,100.00
2023-05-14T06:59:39.647Z,100.00
2023-05-14T07:02:06.336Z,100.00
2023-05-14T07:04:33.180Z,100.00
2023-05-14T07:07:00.184Z,100.00
2023-05-14T07:09:26.922Z,100.00
2023-05-14T07:11:53.549Z,100.00
2023-05-14T07:14:20.287Z,100.00
2023-05-14T07:21:57.684Z,100.00
2023-05-14T07:24:24.465Z,100.00
2023-05-14T07:26:51.414Z,100.00
2023-05-14T07:29:18.142Z,100.00
2023-05-14T07:31:44.923Z,100.00
2023-05-14T07:34:12.915Z,100.00
2023-05-14T07:36:39.766Z,100.00
2023-05-14T07:39:06.731Z,100.00
2023-05-14T07:41:33.510Z,100.00
2023-05-14T07:44:00.247Z,100.00
2023-05-14T07:46:26.878Z,100.00
2023-05-14T07:48:53.518Z,100.00
2023-05-14T07:51:20.183Z,100.00
2023-05-14T07:53:46.821Z,99.46
2023-05-14T07:56:13.517Z,94.22
2023-05-14T07:58:41.642Z,94.20
2023-05-14T08:01:09.353Z,98.47
2023-05-14T08:03:36.114Z,97.53
2023-05-14T08:08:34.352Z,97.60
2023-05-14T08:11:01.163Z,94.88
2023-05-14T08:13:27.827Z,96.17
2023-05-14T08:15:54.462Z,95.89
2023-05-14T08:18:21.153Z,94.97
2023-05-14T08:20:48.575Z,92.43
2023-05-14T08:23:15.296Z,94.09
2023-05-14T08:25:41.958Z,93.74
2023-05-14T08:28:08.675Z,94.73
2023-05-14T08:30:35.389Z,89.18
2023-05-14T08:33:02.133Z,87.57
2023-05-14T08:35:28.881Z,86.53
2023-05-14T08:37:57.102Z,85.69
2023-05-14T08:40:24.174Z,85.61
2023-05-14T08:42:51.826Z,85.85
2023-05-14T08:45:25.838Z,83.41
2023-05-14T08:47:53.061Z,83.48
2023-05-14T08:50:22.759Z,83.84
2023-05-14T08:52:49.854Z,76.00
2023-05-14T08:55:16.517Z,80.44
2023-05-14T08:57:43.187Z,78.25
2023-05-14T09:00:13.444Z,79.56
2023-05-14T09:02:41.898Z,78.79
2023-05-14T09:05:12.642Z,77.53
2023-05-14T09:07:39.574Z,78.96
2023-05-14T09:10:06.989Z,79.17
2023-05-14T09:12:33.618Z,78.46
2023-05-14T09:15:00.447Z,75.90
2023-05-14T09:17:30.070Z,76.46
2023-05-14T09:19:56.792Z,76.22
2023-05-14T09:22:23.500Z,77.18
2023-05-14T09:25:04.237Z,78.66
2023-05-14T09:27:32.210Z,78.57
2023-05-14T09:30:14.375Z,80.60
2023-05-14T09:32:50.535Z,80.53
2023-05-14T09:35:19.914Z,77.89
2023-05-14T09:37:48.674Z,77.25
2023-05-14T09:40:16.361Z,79.04
2023-05-14T09:42:43.310Z,77.42
2023-05-14T09:45:11.056Z,75.34
2023-05-14T09:47:38.933Z,76.57
2023-05-14T09:50:06.861Z,75.53
2023-05-14T09:52:33.695Z,75.46
2023-05-14T09:55:01.126Z,73.95
2023-05-14T09:57:29.911Z,74.16
2023-05-14T09:59:56.556Z,78.80
2023-05-14T10:02:44.860Z,78.37
2023-05-14T10:05:13.455Z,78.00
2023-05-14T10:07:46.818Z,74.46
2023-05-14T10:10:19.972Z,73.84
2023-05-14T10:12:53.205Z,72.22
2023-05-14T10:15:29.350Z,72.22
2023-05-14T10:17:58.842Z,72.85
2023-05-14T10:20:27.507Z,71.25
2023-05-14T10:22:54.327Z,73.35
2023-05-14T10:25:22.007Z,76.58
2023-05-14T10:27:49.036Z,75.30
2023-05-14T10:30:15.809Z,76.02
2023-05-14T10:32:44.477Z,76.75
2023-05-14T10:35:20.773Z,74.16
2023-05-14T10:37:51.464Z,70.84
2023-05-14T10:40:19.583Z,70.32
2023-05-14T10:42:47.120Z,71.71
2023-05-14T10:45:15.304Z,71.59
2023-05-14T10:47:47.071Z,72.40
2023-05-14T10:50:17.865Z,71.22
2023-05-14T10:52:45.938Z,73.02
2023-05-14T10:55:15.047Z,69.15
2023-05-14T10:57:43.665Z,69.99
2023-05-14T11:00:11.653Z,70.33
2023-05-14T11:02:43.173Z,69.05
2023-05-14T11:05:14.212Z,69.64
2023-05-14T11:07:42.255Z,72.02
2023-05-14T11:10:17.274Z,74.99
2023-05-14T11:12:48.845Z,73.09
2023-05-14T11:15:23.486Z,74.64
2023-05-14T11:17:51.475Z,75.72
2023-05-14T11:20:18.952Z,71.18
2023-05-14T11:22:46.882Z,69.66
2023-05-14T11:25:15.147Z,68.11
2023-05-14T11:27:44.198Z,68.37
2023-05-14T11:30:19.133Z,70.32
2023-05-14T11:32:47.683Z,69.20
2023-05-14T11:35:15.726Z,66.79
2023-05-14T11:37:43.573Z,67.64
2023-05-14T11:40:19.312Z,65.19
2023-05-14T11:42:46.232Z,62.51
2023-05-14T11:45:14.080Z,62.25
2023-05-14T11:47:42.000Z,60.40
2023-05-14T11:50:09.818Z,62.41
2023-05-14T11:52:41.948Z,62.64
2023-05-14T11:55:12.986Z,63.19
2023-05-14T11:57:41.241Z,60.92
2023-05-14T12:00:09.706Z,56.21
2023-05-14T12:02:37.416Z,57.71
2023-05-14T12:05:07.436Z,57.42
2023-05-14T12:07:34.135Z,56.47
2023-05-14T12:10:03.004Z,55.21
2023-05-14T12:12:36.362Z,59.95
2023-05-14T12:15:10.472Z,56.71
2023-05-14T12:17:38.324Z,55.05
2023-05-14T12:20:08.326Z,57.82
2023-05-14T12:22:36.939Z,57.53
2023-05-14T12:25:04.133Z,58.51
2023-05-14T12:27:30.833Z,59.83
2023-05-14T12:32:36.226Z,59.51
2023-05-14T12:35:03.283Z,58.61
2023-05-14T12:37:31.229Z,61.33
2023-05-14T12:39:58.001Z,60.31
2023-05-14T12:42:24.686Z,62.42
2023-05-14T12:44:51.291Z,61.87
2023-05-14T12:47:18.231Z,63.48
2023-05-14T12:49:45.093Z,61.86
2023-05-14T12:54:43.660Z,60.96
2023-05-14T12:57:10.503Z,58.52
2023-05-14T12:59:37.235Z,59.69
2023-05-14T13:02:04.001Z,56.44
2023-05-14T13:04:30.744Z,57.39
2023-05-14T13:06:57.437Z,56.55
2023-05-14T13:09:24.135Z,57.08
2023-05-14T13:11:50.828Z,56.21
2023-05-14T13:14:18.400Z,57.56
2023-05-14T13:16:46.871Z,56.74
2023-05-14T13:19:13.656Z,55.47
2023-05-14T13:21:40.596Z,57.04
2023-05-14T13:24:07.405Z,58.97
2023-05-14T13:26:34.081Z,56.33
2023-05-14T13:29:00.679Z,56.92
2023-05-14T13:31:27.434Z,58.54
2023-05-14T13:33:54.303Z,55.93
2023-05-14T13:36:21.141Z,56.97
2023-05-14T13:38:47.990Z,55.45
2023-05-14T13:41:14.749Z,57.05
2023-05-14T13:43:41.442Z,55.52
2023-05-14T13:46:08.204Z,55.62
2023-05-14T13:48:36.618Z,54.75
2023-05-14T13:51:03.711Z,55.19
2023-05-14T13:53:30.782Z,54.60
2023-05-14T13:55:58.647Z,55.83
2023-05-14T13:58:25.903Z,56.50
2023-05-14T14:00:53.217Z,54.41
2023-05-14T14:03:20.198Z,55.80
2023-05-14T14:05:46.939Z,54.47
2023-05-14T14:10:48.910Z,54.97
2023-05-14T14:13:15.647Z,53.56
2023-05-14T14:15:42.869Z,54.89
2023-05-14T14:20:43.475Z,53.29
2023-05-14T14:23:10.118Z,53.94
2023-05-14T14:25:36.816Z,54.11
2023-05-14T14:28:03.506Z,55.63
2023-05-14T14:30:30.264Z,53.63
2023-05-14T14:32:57.049Z,54.71
2023-05-14T14:35:24.265Z,55.47
2023-05-14T14:37:53.826Z,55.34
2023-05-14T14:40:20.748Z,55.31
2023-05-14T14:42:47.413Z,55.33
2023-05-14T14:45:14.012Z,55.88
2023-05-14T14:47:45.354Z,57.93
2023-05-14T14:50:13.190Z,59.37
2023-05-14T14:52:45.443Z,57.91
2023-05-14T14:55:12.826Z,57.56
2023-05-14T14:57:39.595Z,57.67
2023-05-14T15:00:07.170Z,60.20
2023-05-14T15:02:34.325Z,57.93
2023-05-14T15:05:01.311Z,58.40
2023-05-14T15:07:28.218Z,58.13
2023-05-14T15:09:54.877Z,58.49
2023-05-14T15:12:21.508Z,58.78
2023-05-14T15:14:48.155Z,58.23
2023-05-14T15:17:14.804Z,59.12
2023-05-14T15:19:41.431Z,58.65
2023-05-14T15:22:08.089Z,59.84
2023-05-14T15:24:34.710Z,59.64
2023-05-14T15:27:01.324Z,62.43
2023-05-14T15:29:28.883Z,61.09
2023-05-14T15:31:55.589Z,62.02
2023-05-14T15:34:22.239Z,62.31
2023-05-14T15:36:48.879Z,62.72
2023-05-14T15:39:15.490Z,60.20
2023-05-14T15:41:42.206Z,58.72
2023-05-14T15:44:08.855Z,61.23
2023-05-14T15:46:35.953Z,59.78
2023-05-14T15:49:02.734Z,58.58
2023-05-14T15:51:29.493Z,58.46
2023-05-14T15:53:56.207Z,57.62
2023-05-14T15:56:23.233Z,57.16
2023-05-14T15:58:50.324Z,57.22
2023-05-14T16:01:17.179Z,57.92
2023-05-14T16:03:43.985Z,56.68
2023-05-14T16:06:11.814Z,58.32
2023-05-14T16:08:38.763Z,56.54
2023-05-14T16:11:06.533Z,56.95
2023-05-14T16:13:33.973Z,58.34
2023-05-14T16:16:01.490Z,57.71
2023-05-14T16:18:28.305Z,56.94
2023-05-14T16:20:55.317Z,56.31
2023-05-14T16:23:21.960Z,56.61
2023-05-14T16:25:49.201Z,57.63
2023-05-14T16:28:16.034Z,57.79
2023-05-14T16:30:42.760Z,57.16
2023-05-14T16:33:09.455Z,58.01
2023-05-14T16:35:36.250Z,58.67
2023-05-14T16:38:02.965Z,59.48
2023-05-14T16:40:29.748Z,59.62
2023-05-14T16:42:56.365Z,60.23
2023-05-14T16:45:23.370Z,59.18
2023-05-14T16:47:50.557Z,59.69
2023-05-14T16:50:17.393Z,59.41
2023-05-14T16:52:44.043Z,59.49
2023-05-14T16:55:11.081Z,57.67
2023-05-14T16:57:37.835Z,63.83
2023-05-14T17:00:06.351Z,61.21
2023-05-14T17:02:33.590Z,59.08
2023-05-14T17:05:00.426Z,60.31
2023-05-14T17:07:27.250Z,59.84
2023-05-14T17:09:53.903Z,57.77
2023-05-14T17:12:20.748Z,58.24
2023-05-14T17:14:47.439Z,58.72
2023-05-14T17:17:14.062Z,58.99
2023-05-14T17:19:41.192Z,59.96
2023-05-14T17:22:08.034Z,58.88
2023-05-14T17:24:36.585Z,57.80
2023-05-14T17:27:03.468Z,57.61
2023-05-14T17:29:30.157Z,57.75
2023-05-14T17:31:56.970Z,58.19
2023-05-14T17:34:24.306Z,58.88
2023-05-14T17:36:51.240Z,59.54
2023-05-14T17:39:17.905Z,60.22
2023-05-14T17:41:44.615Z,60.42
2023-05-14T17:46:42.816Z,61.45
2023-05-14T17:49:09.536Z,61.39
2023-05-14T17:51:36.188Z,62.56
2023-05-14T17:54:02.848Z,63.63
2023-05-14T17:56:29.732Z,63.10
2023-05-14T17:58:56.517Z,63.63
2023-05-14T18:01:23.289Z,64.16
2023-05-14T18:03:50.112Z,64.63
2023-05-14T18:06:17.060Z,64.19
2023-05-14T18:08:43.815Z,64.77
2023-05-14T18:11:10.463Z,66.62
2023-05-14T18:13:37.087Z,66.61
2023-05-14T18:16:04.135Z,67.75
2023-05-14T18:18:31.171Z,68.43
2023-05-14T18:20:58.401Z,69.28
2023-05-14T18:23:25.059Z,68.55
2023-05-14T18:25:51.999Z,69.06
2023-05-14T18:28:19.223Z,78.07
2023-05-14T18:30:45.983Z,71.70
2023-05-14T18:33:12.734Z,70.45
2023-05-14T18:35:39.536Z,69.42
2023-05-14T18:38:08.162Z,69.81
2023-05-14T18:40:35.126Z,70.58
2023-05-14T18:43:01.852Z,71.66
2023-05-14T18:45:28.656Z,72.39
2023-05-14T18:47:55.727Z,72.46
2023-05-14T18:50:22.516Z,73.12
2023-05-14T18:52:49.390Z,73.95
2023-05-14T18:55:16.106Z,75.09
2023-05-14T18:57:42.777Z,74.24
2023-05-14T19:00:10.114Z,74.95
2023-05-14T19:02:36.846Z,75.36
2023-05-14T19:05:03.666Z,75.88
2023-05-14T19:07:31.245Z,75.18
2023-05-14T19:09:57.874Z,74.65
2023-05-14T19:12:24.510Z,75.63
2023-05-14T19:14:51.200Z,76.46
2023-05-14T19:17:19.924Z,76.18
2023-05-14T19:19:47.279Z,78.25
2023-05-14T19:22:13.975Z,78.94
2023-05-14T19:24:40.708Z,79.10
2023-05-14T19:27:08.060Z,79.62
2023-05-14T19:29:37.096Z,81.90
2023-05-14T19:32:04.864Z,80.47
2023-05-14T19:34:31.548Z,79.39
2023-05-14T19:36:58.239Z,81.27
2023-05-14T19:39:24.893Z,80.01
2023-05-14T19:41:51.528Z,79.86
2023-05-14T19:44:18.261Z,79.57
2023-05-14T19:46:45.432Z,80.23
2023-05-14T19:49:12.329Z,80.58
2023-05-14T19:51:39.032Z,80.62
2023-05-14T19:54:06.044Z,80.21
2023-05-14T19:56:32.790Z,80.83
2023-05-14T19:58:59.438Z,81.91
2023-05-14T20:01:26.930Z,83.66
2023-05-14T20:03:53.637Z,83.80
2023-05-14T20:06:20.254Z,83.75
2023-05-14T20:08:46.913Z,84.56
2023-05-14T20:11:15.681Z,84.50
2023-05-14T20:13:42.479Z,85.52
2023-05-14T20:16:09.209Z,87.39
2023-05-14T20:18:36.393Z,88.36
2023-05-14T20:21:03.143Z,89.14
2023-05-14T20:23:29.741Z,88.06
2023-05-14T20:25:56.431Z,88.85
2023-05-14T20:28:23.034Z,89.20
2023-05-14T20:33:22.157Z,89.83
2023-05-14T20:35:50.360Z,89.86
2023-05-14T20:38:18.742Z,91.07
2023-05-14T20:40:45.616Z,90.14
2023-05-14T20:45:43.798Z,90.49
2023-05-14T20:48:12.376Z,88.99
2023-05-14T20:50:39.089Z,90.34
2023-05-14T20:53:06.045Z,90.65
2023-05-14T20:58:09.910Z,91.69
2023-05-14T21:00:36.637Z,91.85
2023-05-14T21:03:03.639Z,91.38
2023-05-14T21:05:30.376Z,90.35
2023-05-14T21:07:57.101Z,90.97
2023-05-14T21:10:24.042Z,91.70
2023-05-14T21:15:27.470Z,93.28
2023-05-14T21:17:54.496Z,91.21
2023-05-14T21:20:21.234Z,91.30
2023-05-14T21:22:47.938Z,91.56
2023-05-14T21:25:14.697Z,91.83
2023-05-14T21:27:41.706Z,92.42
2023-05-14T21:30:08.955Z,91.86
2023-05-14T21:32:35.643Z,91.71
2023-05-14T21:35:02.349Z,91.11
2023-05-14T21:37:29.150Z,91.56
2023-05-14T21:39:56.022Z,90.95
2023-05-14T21:42:22.740Z,90.81
2023-05-14T21:44:49.454Z,91.12
2023-05-14T21:47:16.528Z,90.35
2023-05-14T21:49:43.560Z,89.87
2023-05-14T21:52:10.290Z,89.92
2023-05-14T21:54:36.992Z,90.13
2023-05-14T21:57:03.917Z,91.08
2023-05-14T21:59:30.664Z,90.47
2023-05-14T22:02:07.008Z,90.53
2023-05-14T22:04:34.534Z,89.87
2023-05-14T22:07:01.798Z,91.78
2023-05-14T22:09:28.503Z,91.80
2023-05-14T22:11:55.131Z,91.25
2023-05-14T22:14:21.839Z,90.62
2023-05-14T22:16:48.724Z,90.59
2023-05-14T22:19:16.867Z,90.60
2023-05-14T22:21:43.606Z,91.78
2023-05-14T22:26:41.479Z,92.34
2023-05-14T22:29:08.172Z,93.37
2023-05-14T22:31:34.860Z,94.01
2023-05-14T22:36:34.185Z,90.96
2023-05-14T22:39:01.160Z,93.00
2023-05-14T22:41:28.154Z,92.64
2023-05-14T22:43:54.895Z,94.10
2023-05-14T22:46:21.735Z,94.52
2023-05-14T22:48:49.407Z,95.17
2023-05-14T22:51:16.577Z,96.93
2023-05-14T22:53:43.349Z,95.61
2023-05-14T22:56:10.069Z,95.39
2023-05-14T22:58:36.705Z,95.50
2023-05-14T23:01:03.749Z,95.93
2023-05-14T23:03:30.749Z,96.65
2023-05-14T23:05:57.508Z,97.01
2023-05-14T23:08:24.196Z,98.49
2023-05-14T23:10:50.864Z,96.92
2023-05-14T23:13:17.650Z,98.21
2023-05-14T23:15:44.439Z,98.59
2023-05-14T23:18:11.136Z,99.36
2023-05-14T23:20:37.847Z,99.60
2023-05-14T23:23:05.129Z,100.00
2023-05-14T23:25:32.687Z,99.56
2023-05-14T23:27:59.390Z,99.28
2023-05-14T23:44:08.592Z,98.35
2023-05-14T23:46:35.335Z,99.32
2023-05-14T23:49:02.064Z,98.86
2023-05-14T23:51:28.784Z,99.99
2023-05-14T23:53:58.738Z,100.00
2023-05-14T23:56:26.364Z,100.00
